Terminal Aerodrome Forecast
Issued by NWS

Home | Current Version | Previous Version | Text Only | Print | Product List | Glossary On
Versions: 1 2 3 4 5 6 7 8 9 10 11 12
000
FTUS42 TJSJ 072343
TAFJSJ
TAF
TJSJ 072343Z 0800/0824 11005KT P6SM FEW025 SCT040
     FM081330 07015G22KT P6SM FEW030 SCT050
     FM082330 11005KT P6SM FEW025=

USA.gov is the U.S. government's official web portal to all federal, state and local government web resources and services.